Time;durP1;ratioP1;P1;durP2;ratioP2;P2;SDS_P1;SDS_P2;PMS_P1;PMS_P2;Temp;Humidity;BMP_temperature;BMP_pressure;BME280_temperature;BME280_humidity;BME280_pressure;Samples;Min_cycle;Max_cycle;Signal;HPM_P1;HPM_P2
2023/05/21 00:00:59;;;;;;;13.13;6.20;;;14.00;99.90;;;;;;5102216;27;20035;-72
2023/05/21 00:03:27;;;;;;;13.98;6.20;;;13.90;99.90;;;;;;5136904;27;20051;-72
2023/05/21 00:05:53;;;;;;;10.98;5.30;;;14.00;99.90;;;;;;5136922;27;20046;-72
2023/05/21 00:08:20;;;;;;;11.10;5.72;;;14.00;99.90;;;;;;5136727;27;20122;-71
2023/05/21 00:10:45;;;;;;;10.82;5.10;;;14.00;99.90;;;;;;5136676;27;20031;-70
2023/05/21 00:13:11;;;;;;;9.30;5.47;;;14.00;99.90;;;;;;5136515;27;20116;-72
2023/05/21 00:15:37;;;;;;;13.40;6.13;;;14.00;99.90;;;;;;5136570;27;20082;-71
2023/05/21 00:18:03;;;;;;;12.30;6.10;;;14.00;99.90;;;;;;5136826;27;20047;-72
2023/05/21 00:20:31;;;;;;;12.88;6.00;;;14.00;99.90;;;;;;5101261;27;20832;-71
2023/05/21 00:22:57;;;;;;;;;;;13.90;99.90;;;;;;5101739;27;20043;-71
2023/05/21 00:25:23;;;;;;;18.73;5.78;;;13.90;99.90;;;;;;5136436;27;19945;-71
2023/05/21 00:27:48;;;;;;;11.45;5.50;;;13.90;99.90;;;;;;5067788;27;20047;-70
2023/05/21 00:30:15;;;;;;;13.98;6.30;;;14.00;99.90;;;;;;5136302;27;20050;-70
2023/05/21 00:32:40;;;;;;;10.63;5.60;;;13.90;99.90;;;;;;5118068;27;20043;-69
2023/05/21 00:35:07;;;;;;;13.45;6.25;;;13.90;99.90;;;;;;5137010;27;20050;-72
2023/05/21 00:37:33;;;;;;;11.35;6.10;;;13.90;99.90;;;;;;5136272;27;20180;-72
2023/05/21 00:40:00;;;;;;;12.93;5.72;;;13.90;99.90;;;;;;5117932;27;20500;-71
2023/05/21 00:42:26;;;;;;;10.80;5.90;;;13.90;99.90;;;;;;5136101;27;20191;-70
2023/05/21 00:44:53;;;;;;;12.25;6.00;;;13.90;99.90;;;;;;5117769;27;20043;-72
2023/05/21 00:47:20;;;;;;;14.27;5.78;;;13.90;99.90;;;;;;5135953;27;20043;-71
2023/05/21 00:49:47;;;;;;;12.38;5.40;;;13.90;99.90;;;;;;5118452;27;20050;-71
2023/05/21 00:52:19;;;;;;;13.07;6.88;;;13.80;99.90;;;;;;5100608;27;20069;-70
2023/05/21 00:54:47;;;;;;;12.77;6.38;;;13.80;99.90;;;;;;5136786;27;20047;-70
2023/05/21 00:57:13;;;;;;;10.65;5.95;;;13.80;99.90;;;;;;5135900;27;20050;-71
2023/05/21 00:59:39;;;;;;;15.37;6.20;;;13.80;99.90;;;;;;5116845;27;20051;-71
2023/05/21 01:02:05;;;;;;;12.82;6.57;;;13.80;99.90;;;;;;5118168;27;20131;-70
2023/05/21 01:04:31;;;;;;;12.82;6.97;;;13.70;99.90;;;;;;5135620;27;20531;-71
2023/05/21 01:06:57;;;;;;;10.95;6.13;;;13.70;99.90;;;;;;5117507;27;20043;-70
2023/05/21 01:09:26;;;;;;;12.63;6.63;;;13.70;99.90;;;;;;5135528;27;20047;-70
2023/05/21 01:11:53;;;;;;;13.45;6.80;;;13.70;99.90;;;;;;5117181;27;20122;-71
2023/05/21 01:14:21;;;;;;;11.98;7.00;;;13.70;99.90;;;;;;5135358;27;20043;-70
2023/05/21 01:16:49;;;;;;;14.40;7.55;;;13.70;99.90;;;;;;5135361;27;20050;-71
2023/05/21 01:19:17;;;;;;;11.57;6.43;;;13.70;99.90;;;;;;5135522;27;20126;-71
2023/05/21 01:21:51;;;;;;;14.55;7.25;;;13.70;99.90;;;;;;5117035;27;20140;-71
2023/05/21 01:24:18;;;;;;;14.20;7.15;;;13.70;99.90;;;;;;5117381;27;20043;-72
2023/05/21 01:26:45;;;;;;;13.98;7.25;;;13.70;99.90;;;;;;5099600;27;20082;-71
2023/05/21 01:29:12;;;;;;;12.68;6.53;;;13.70;99.90;;;;;;5116862;27;20047;-72
2023/05/21 01:31:55;;;;;;;14.45;6.28;;;13.70;99.90;;;;;;5117960;27;20103;-71
2023/05/21 01:34:26;;;;;;;14.90;7.03;;;13.70;99.90;;;;;;5135435;27;20135;-72
2023/05/21 01:37:09;;;;;;;12.55;7.03;;;13.70;99.90;;;;;;5136054;27;20369;-71
2023/05/21 01:39:38;;;;;;;17.45;7.25;;;13.60;99.90;;;;;;5134702;27;20086;-71
2023/05/21 01:42:09;;;;;;;15.73;7.00;;;13.60;99.90;;;;;;5099903;27;20062;-72
2023/05/21 01:44:36;;;;;;;13.52;7.13;;;13.60;99.90;;;;;;5099671;27;20058;-71
2023/05/21 01:47:03;;;;;;;14.38;6.95;;;13.60;99.90;;;;;;5134903;27;20498;-71
2023/05/21 01:49:30;;;;;;;15.40;6.88;;;13.60;99.90;;;;;;5134900;27;20153;-71
2023/05/21 01:51:56;;;;;;;12.82;6.75;;;13.60;99.90;;;;;;5134747;27;20043;-70
2023/05/21 01:54:22;;;;;;;16.35;7.38;;;13.60;99.90;;;;;;5116713;27;20054;-71
2023/05/21 01:56:49;;;;;;;11.40;6.68;;;13.50;99.90;;;;;;5135496;27;20043;-71
2023/05/21 01:59:16;;;;;;;19.50;7.28;;;13.50;99.90;;;;;;5116368;27;20051;-71
2023/05/21 02:01:42;;;;;;;14.18;7.70;;;13.50;99.90;;;;;;5134681;27;20039;-72
2023/05/21 02:04:08;;;;;;;11.93;7.05;;;13.50;99.90;;;;;;5134646;27;20051;-69
2023/05/21 02:06:34;;;;;;;13.25;6.65;;;13.40;99.90;;;;;;5116881;27;20058;-70
2023/05/21 02:09:01;;;;;;;13.15;6.65;;;13.50;99.90;;;;;;5116551;28;20043;-71
2023/05/21 02:11:27;;;;;;;14.20;7.10;;;13.50;99.90;;;;;;5133444;27;20092;-70
2023/05/21 02:13:53;;;;;;;14.30;6.18;;;13.50;99.90;;;;;;5134528;27;20047;-71
2023/05/21 02:16:21;;;;;;;11.75;6.47;;;13.50;99.90;;;;;;5116211;27;20087;-71
2023/05/21 02:18:50;;;;;;;17.48;7.15;;;13.50;99.90;;;;;;5134887;27;20135;-70
2023/05/21 02:21:16;;;;;;;12.13;6.75;;;13.50;99.90;;;;;;5135127;27;20053;-70
2023/05/21 02:23:42;;;;;;;13.38;7.45;;;13.50;99.90;;;;;;5116266;28;20147;-72
2023/05/21 02:26:07;;;;;;;12.75;6.85;;;13.50;99.90;;;;;;5116229;28;20078;-69
2023/05/21 02:28:35;;;;;;;14.85;7.13;;;13.60;99.90;;;;;;5116990;28;20468;-72
2023/05/21 02:31:00;;;;;;;14.27;7.00;;;13.50;99.90;;;;;;5134129;28;20035;-71
2023/05/21 02:33:26;;;;;;;13.25;6.30;;;13.60;99.90;;;;;;5116024;28;20053;-71
2023/05/21 02:35:52;;;;;;;15.80;6.78;;;13.50;99.90;;;;;;5116714;28;20064;-69
2023/05/21 02:38:21;;;;;;;13.65;6.13;;;13.60;99.90;;;;;;5134231;28;20051;-71
2023/05/21 02:40:49;;;;;;;13.68;6.22;;;13.60;99.90;;;;;;5115937;28;20047;-70
2023/05/21 02:43:15;;;;;;;15.75;6.82;;;13.60;99.90;;;;;;5134272;28;20044;-68
2023/05/21 02:45:41;;;;;;;13.80;7.30;;;13.60;99.90;;;;;;5115939;28;20099;-72
2023/05/21 02:48:06;;;;;;;14.63;6.68;;;13.60;99.90;;;;;;5134244;28;20100;-71
2023/05/21 02:50:32;;;;;;;12.95;6.25;;;13.60;99.90;;;;;;5134091;28;20043;-69
2023/05/21 02:52:58;;;;;;;15.85;6.57;;;13.50;99.90;;;;;;5098672;28;20055;-71
2023/05/21 02:55:25;;;;;;;14.93;7.47;;;13.50;99.90;;;;;;5134068;28;20104;-73
2023/05/21 02:57:50;;;;;;;14.10;7.22;;;13.50;99.90;;;;;;5134158;28;20087;-72
2023/05/21 03:00:16;;;;;;;16.15;7.18;;;13.50;99.90;;;;;;5115598;28;20126;-71
2023/05/21 03:02:42;;;;;;;16.45;7.00;;;13.50;99.90;;;;;;5116049;28;20073;-71
2023/05/21 03:05:08;;;;;;;14.88;7.15;;;13.50;99.90;;;;;;5115773;28;20400;-71
2023/05/21 03:07:34;;;;;;;14.95;7.38;;;13.50;99.90;;;;;;5099470;28;20051;-71
2023/05/21 03:09:59;;;;;;;11.90;6.68;;;13.50;99.90;;;;;;5115732;28;20103;-70
2023/05/21 03:12:25;;;;;;;14.07;6.60;;;13.50;99.90;;;;;;5081832;28;20036;-82
2023/05/21 03:14:51;;;;;;;14.25;6.72;;;13.50;99.90;;;;;;5133582;28;20063;-71
2023/05/21 03:17:17;;;;;;;18.90;7.47;;;13.50;99.90;;;;;;5134070;28;20097;-71
2023/05/21 03:19:43;;;;;;;14.77;7.13;;;13.50;99.90;;;;;;5115947;28;20416;-70
2023/05/21 03:22:13;;;;;;;11.70;6.78;;;13.50;99.90;;;;;;5117220;27;20472;-70
2023/05/21 03:24:40;;;;;;;12.05;6.80;;;13.50;99.90;;;;;;5102408;27;20047;-71
2023/05/21 03:27:06;;;;;;;18.35;7.63;;;13.40;99.90;;;;;;5138211;27;20055;-71
2023/05/21 03:29:33;;;;;;;14.90;7.07;;;13.40;99.90;;;;;;5102510;27;20502;-71
2023/05/21 03:32:00;;;;;;;14.38;8.65;;;13.40;99.90;;;;;;5120051;27;20043;-70
2023/05/21 03:34:25;;;;;;;17.55;7.80;;;13.40;99.90;;;;;;5137078;27;20553;-70
2023/05/21 03:36:51;;;;;;;15.13;6.82;;;13.40;99.90;;;;;;5137351;27;20047;-71
2023/05/21 03:39:17;;;;;;;17.02;8.00;;;13.40;99.90;;;;;;5102039;27;20095;-70
2023/05/21 03:41:42;;;;;;;15.40;8.23;;;13.40;99.90;;;;;;5102042;27;20047;-69
2023/05/21 03:44:08;;;;;;;17.95;7.57;;;13.40;99.90;;;;;;5137725;27;20123;-70
2023/05/21 03:46:34;;;;;;;19.52;7.70;;;13.40;99.90;;;;;;5118823;27;20529;-70
2023/05/21 03:49:00;;;;;;;15.98;8.88;;;13.40;99.90;;;;;;5118615;27;20515;-70
2023/05/21 03:51:26;;;;;;;16.27;8.77;;;13.40;99.90;;;;;;5137051;27;20126;-69
2023/05/21 03:53:52;;;;;;;15.30;7.10;;;13.40;99.90;;;;;;5079776;27;20151;-69
2023/05/21 03:56:18;;;;;;;18.52;7.28;;;13.40;99.90;;;;;;5041602;28;20055;-70
2023/05/21 03:58:43;;;;;;;16.88;7.80;;;13.40;99.90;;;;;;5116616;28;20516;-69
2023/05/21 04:01:09;;;;;;;17.67;8.70;;;13.40;99.90;;;;;;5098119;28;20043;-70
2023/05/21 04:03:35;;;;;;;17.13;7.43;;;13.40;99.90;;;;;;5098098;28;20070;-70
2023/05/21 04:06:02;;;;;;;14.88;6.93;;;13.40;99.90;;;;;;5098505;28;20423;-68
2023/05/21 04:08:28;;;;;;;20.20;8.50;;;13.40;99.90;;;;;;5116506;28;20102;-68
2023/05/21 04:10:54;;;;;;;14.82;7.25;;;13.40;99.90;;;;;;5098929;28;20505;-69
2023/05/21 04:13:20;;;;;;;19.42;8.18;;;13.40;99.90;;;;;;5097756;28;20431;-70
2023/05/21 04:15:46;;;;;;;16.33;9.13;;;13.40;99.90;;;;;;5097649;28;20044;-71
2023/05/21 04:18:19;;;;;;;14.98;7.65;;;13.40;99.90;;;;;;5097720;28;20048;-71
2023/05/21 04:20:45;;;;;;;15.10;7.05;;;13.40;99.90;;;;;;5097711;28;20044;-72
2023/05/21 04:23:11;;;;;;;19.77;7.00;;;13.40;99.90;;;;;;5081112;28;20389;-71
2023/05/21 04:25:37;;;;;;;20.23;7.13;;;13.40;99.90;;;;;;5098166;28;20039;-71
2023/05/21 04:28:03;;;;;;;13.73;6.97;;;13.40;99.90;;;;;;5115861;28;20101;-70
2023/05/21 04:30:29;;;;;;;12.65;6.45;;;13.50;99.90;;;;;;5115522;28;20477;-71
2023/05/21 04:32:56;;;;;;;14.98;7.43;;;13.40;99.90;;;;;;5114980;28;20095;-71
2023/05/21 04:35:22;;;;;;;20.35;7.35;;;13.40;99.90;;;;;;5115360;28;20119;-69
2023/05/21 04:37:48;;;;;;;15.43;6.82;;;13.40;99.90;;;;;;5097410;28;20150;-70
2023/05/21 04:40:17;;;;;;;16.30;7.78;;;13.40;99.90;;;;;;5080636;28;20446;-68
2023/05/21 04:42:47;;;;;;;15.35;7.00;;;13.40;99.90;;;;;;5115474;28;20132;-69
2023/05/21 04:45:13;;;;;;;13.93;6.22;;;13.50;99.90;;;;;;5115729;28;20051;-68
2023/05/21 04:47:38;;;;;;;16.50;6.93;;;13.50;99.90;;;;;;5097834;28;20055;-69
2023/05/21 04:50:05;;;;;;;14.75;6.57;;;13.50;99.90;;;;;;5116171;28;20372;-70
2023/05/21 04:52:31;;;;;;;18.70;7.72;;;13.50;99.90;;;;;;5115295;28;20047;-70
2023/05/21 04:54:56;;;;;;;17.75;7.28;;;13.50;99.90;;;;;;5115281;28;20127;-71
2023/05/21 04:57:26;;;;;;;17.25;5.80;;;13.50;99.90;;;;;;5096617;28;20062;-69
2023/05/21 04:59:52;;;;;;;12.82;6.22;;;13.60;99.90;;;;;;5097445;28;20051;-69
2023/05/21 05:02:18;;;;;;;12.15;6.03;;;13.60;99.90;;;;;;5115959;28;20097;-70
2023/05/21 05:04:44;;;;;;;15.40;6.57;;;13.60;99.90;;;;;;5115089;28;20443;-69
2023/05/21 05:07:10;;;;;;;13.80;6.18;;;13.50;99.90;;;;;;5097204;28;20386;-69
2023/05/21 05:09:35;;;;;;;11.80;5.55;;;13.60;99.90;;;;;;5096912;28;20032;-70
2023/05/21 05:12:01;;;;;;;15.40;5.80;;;13.60;99.90;;;;;;5063391;28;20052;-69
2023/05/21 05:14:27;;;;;;;16.23;6.55;;;13.60;99.90;;;;;;5096787;28;20048;-70
2023/05/21 05:16:52;;;;;;;17.83;6.03;;;13.50;99.90;;;;;;5114500;28;20051;-71
2023/05/21 05:19:19;;;;;;;11.50;5.70;;;13.60;99.90;;;;;;5096852;28;20051;-69
2023/05/21 05:21:44;;;;;;;17.73;5.30;;;13.60;99.90;;;;;;5114943;28;20385;-70
2023/05/21 05:24:10;;;;;;;14.48;5.95;;;13.70;99.90;;;;;;5079928;28;20048;-70
2023/05/21 05:26:36;;;;;;;12.40;6.47;;;13.70;99.90;;;;;;5114682;28;20049;-69
2023/05/21 05:29:01;;;;;;;15.65;5.85;;;13.70;99.90;;;;;;5096590;28;20074;-69
2023/05/21 05:31:27;;;;;;;12.65;5.55;;;13.70;99.90;;;;;;5114533;28;20048;-69
2023/05/21 05:33:54;;;;;;;12.63;5.13;;;13.70;99.90;;;;;;5097372;28;20048;-69
2023/05/21 05:36:20;;;;;;;11.38;5.07;;;13.70;99.90;;;;;;5080462;28;20047;-70
2023/05/21 05:38:45;;;;;;;13.00;5.60;;;13.70;99.90;;;;;;5114423;28;20050;-70
2023/05/21 05:41:11;;;;;;;14.90;5.65;;;13.70;99.90;;;;;;5096226;28;20035;-69
2023/05/21 05:43:37;;;;;;;16.35;6.38;;;13.70;99.90;;;;;;5096318;28;20130;-68
2023/05/21 05:46:02;;;;;;;14.40;5.85;;;13.70;99.90;;;;;;5063366;28;20130;-69
2023/05/21 05:48:28;;;;;;;12.00;5.28;;;13.60;99.90;;;;;;5095793;28;20036;-70
2023/05/21 05:50:55;;;;;;;12.30;5.40;;;13.80;99.90;;;;;;5046145;28;20080;-70
2023/05/21 05:53:21;;;;;;;10.30;4.70;;;13.70;99.90;;;;;;5114214;28;20055;-69
2023/05/21 05:55:47;;;;;;;12.70;5.32;;;13.80;99.90;;;;;;5096108;28;20472;-72
2023/05/21 05:58:13;;;;;;;12.38;4.70;;;13.70;99.90;;;;;;5095578;28;20077;-70
2023/05/21 06:00:38;;;;;;;15.75;4.90;;;13.80;99.90;;;;;;5095964;28;20044;-71
2023/05/21 06:03:04;;;;;;;13.80;4.82;;;13.80;99.90;;;;;;5096386;28;20078;-70
2023/05/21 06:05:30;;;;;;;12.00;5.10;;;13.90;99.90;;;;;;5114003;28;20130;-70
2023/05/21 06:07:56;;;;;;;11.95;4.88;;;14.00;99.90;;;;;;5113953;28;20047;-69
2023/05/21 06:10:22;;;;;;;12.75;4.85;;;14.10;99.90;;;;;;5096361;28;20082;-70
2023/05/21 06:12:48;;;;;;;12.25;5.30;;;14.20;99.90;;;;;;5095981;28;20485;-71
2023/05/21 06:15:15;;;;;;;9.75;4.70;;;14.20;99.90;;;;;;5096228;28;20094;-71
2023/05/21 06:17:40;;;;;;;;;;;14.30;99.90;;;;;;5114348;28;20048;-69
2023/05/21 06:20:08;;;;;;;12.33;4.70;;;14.40;99.90;;;;;;5095513;28;19920;-71
2023/05/21 06:22:35;;;;;;;9.80;4.30;;;14.30;99.90;;;;;;5114653;28;20054;-69
2023/05/21 06:25:03;;;;;;;11.90;4.90;;;14.40;99.90;;;;;;5095853;28;20096;-71
2023/05/21 06:27:29;;;;;;;11.95;4.85;;;14.50;99.90;;;;;;5062439;28;20044;-71
2023/05/21 06:29:56;;;;;;;11.47;4.73;;;14.60;99.90;;;;;;5078903;28;20048;-69
2023/05/21 06:32:22;;;;;;;12.70;4.57;;;14.60;99.90;;;;;;5095776;28;20368;-69
2023/05/21 06:34:47;;;;;;;16.17;5.33;;;14.80;99.90;;;;;;5095820;28;20093;-71
2023/05/21 06:37:17;;;;;;;15.50;5.35;;;14.70;99.90;;;;;;5079020;28;20047;-70
2023/05/21 06:39:43;;;;;;;15.13;4.72;;;14.70;99.90;;;;;;5095613;28;20055;-71
2023/05/21 06:42:09;;;;;;;14.05;5.18;;;14.90;99.90;;;;;;5095487;28;20477;-72
2023/05/21 06:44:35;;;;;;;11.57;4.97;;;14.90;99.90;;;;;;5095665;28;20043;-69
2023/05/21 06:47:00;;;;;;;15.27;5.30;;;14.90;99.90;;;;;;5078454;28;20396;-71
2023/05/21 06:49:26;;;;;;;11.73;4.57;;;14.90;99.90;;;;;;5113499;28;20131;-71
2023/05/21 06:51:52;;;;;;;12.38;4.65;;;15.00;99.90;;;;;;5078708;28;20119;-70
2023/05/21 06:54:18;;;;;;;10.60;4.93;;;15.10;99.90;;;;;;5095952;28;20065;-70
2023/05/21 06:56:43;;;;;;;8.82;4.40;;;15.10;99.90;;;;;;5114310;28;20048;-69
2023/05/21 06:59:09;;;;;;;11.73;4.85;;;15.20;99.90;;;;;;5099290;28;20048;-72
2023/05/21 07:01:35;;;;;;;12.02;5.15;;;15.30;99.90;;;;;;5118210;28;20044;-70
2023/05/21 07:04:01;;;;;;;12.10;4.68;;;15.20;99.90;;;;;;5098948;28;20069;-70
2023/05/21 07:06:27;;;;;;;11.25;3.97;;;15.20;99.90;;;;;;5099219;28;20043;-71
2023/05/21 07:08:52;;;;;;;11.10;4.55;;;15.30;99.90;;;;;;5118282;28;20045;-70
2023/05/21 07:11:18;;;;;;;11.23;4.15;;;15.50;99.90;;;;;;5098670;28;20059;-70
2023/05/21 07:13:44;;;;;;;9.60;4.38;;;15.50;99.90;;;;;;5117278;28;20039;-72
2023/05/21 07:16:10;;;;;;;15.55;4.72;;;15.70;99.90;;;;;;5082184;28;20050;-70
2023/05/21 07:18:36;;;;;;;10.63;4.13;;;15.70;99.90;;;;;;5099086;28;20051;-69
2023/05/21 07:21:02;;;;;;;11.45;5.55;;;15.70;99.90;;;;;;5117759;28;20098;-69
2023/05/21 07:23:27;;;;;;;10.25;4.72;;;15.60;99.90;;;;;;5099444;28;20040;-71
2023/05/21 07:25:53;;;;;;;10.60;4.22;;;15.80;99.90;;;;;;5117076;28;20102;-71
2023/05/21 07:28:19;;;;;;;9.35;4.72;;;15.70;99.90;;;;;;5099235;28;20040;-71
2023/05/21 07:30:45;;;;;;;13.32;4.28;;;15.60;99.90;;;;;;5081667;28;20043;-69
2023/05/21 07:33:11;;;;;;;9.45;4.00;;;15.90;99.90;;;;;;5098743;28;20048;-71
2023/05/21 07:35:37;;;;;;;12.80;4.50;;;15.80;99.90;;;;;;5116828;28;20050;-71
2023/05/21 07:38:02;;;;;;;11.73;4.47;;;15.90;99.90;;;;;;5081943;28;20408;-72
2023/05/21 07:40:28;;;;;;;12.85;4.60;;;16.00;99.90;;;;;;5098392;28;20412;-72
2023/05/21 07:42:55;;;;;;;10.63;4.50;;;16.00;99.90;;;;;;5116597;28;20108;-71
2023/05/21 07:45:20;;;;;;;9.30;3.92;;;16.00;99.90;;;;;;5081603;28;20105;-71
2023/05/21 07:47:46;;;;;;;8.60;4.07;;;16.10;99.90;;;;;;5117313;28;20122;-71
2023/05/21 07:50:13;;;;;;;11.60;4.10;;;16.20;99.90;;;;;;5098098;28;20038;-71
2023/05/21 07:52:39;;;;;;;10.80;4.10;;;16.30;99.90;;;;;;5064482;28;20477;-72
2023/05/21 07:55:06;;;;;;;9.88;4.13;;;16.30;99.90;;;;;;5098067;28;20070;-71
2023/05/21 07:57:31;;;;;;;9.05;3.67;;;16.30;99.90;;;;;;5081259;28;20413;-71
2023/05/21 07:59:57;;;;;;;10.73;4.28;;;16.40;99.90;;;;;;5117135;28;20059;-70
2023/05/21 08:02:23;;;;;;;9.88;4.25;;;16.50;99.90;;;;;;5116023;28;20130;-71
2023/05/21 08:04:49;;;;;;;8.85;4.45;;;16.70;99.90;;;;;;5098001;28;20051;-71
2023/05/21 08:07:18;;;;;;;9.48;4.50;;;16.60;99.90;;;;;;5115841;28;20055;-70
2023/05/21 08:09:44;;;;;;;9.15;4.30;;;16.70;99.90;;;;;;5098367;28;20416;-71
2023/05/21 08:12:14;;;;;;;8.15;3.75;;;16.70;99.90;;;;;;5081042;28;20056;-72
2023/05/21 08:14:40;;;;;;;9.35;3.80;;;16.90;99.90;;;;;;5116108;28;20140;-70
2023/05/21 08:17:09;;;;;;;12.48;4.00;;;16.70;99.90;;;;;;5115795;28;20058;-71
2023/05/21 08:19:35;;;;;;;11.38;3.97;;;16.70;99.90;;;;;;5115748;28;20393;-70
2023/05/21 08:22:01;;;;;;;8.93;3.85;;;16.90;99.90;;;;;;5115731;28;20042;-70
2023/05/21 08:24:29;;;;;;;10.35;4.00;;;16.90;99.90;;;;;;5097935;28;20044;-70
2023/05/21 08:26:55;;;;;;;10.57;3.95;;;17.00;99.90;;;;;;5097619;28;20448;-70
2023/05/21 08:29:21;;;;;;;11.30;3.87;;;17.00;99.90;;;;;;5115460;28;20423;-69
2023/05/21 08:31:47;;;;;;;10.38;4.20;;;17.00;99.90;;;;;;5115610;28;20075;-71
2023/05/21 08:34:12;;;;;;;7.43;3.83;;;16.90;99.90;;;;;;5115459;28;20078;-72
2023/05/21 08:36:41;;;;;;;11.88;4.43;;;16.90;99.90;;;;;;5115238;28;20043;-72
2023/05/21 08:39:07;;;;;;;11.40;4.38;;;16.90;99.90;;;;;;5115395;28;20051;-71
2023/05/21 08:41:35;;;;;;;10.40;4.03;;;17.00;99.90;;;;;;5097098;28;20100;-70
2023/05/21 08:44:01;;;;;;;10.20;4.10;;;17.10;99.90;;;;;;5097336;28;20040;-71
2023/05/21 08:46:35;;;;;;;9.68;3.63;;;17.10;99.90;;;;;;5096935;28;20127;-71
2023/05/21 08:49:02;;;;;;;8.25;3.75;;;17.20;99.90;;;;;;5115253;28;20062;-71
2023/05/21 08:51:29;;;;;;;8.13;3.85;;;17.40;99.90;;;;;;5115109;28;20130;-71
2023/05/21 08:53:57;;;;;;;7.88;4.00;;;17.30;99.90;;;;;;5115065;28;20078;-70
2023/05/21 08:56:24;;;;;;;9.32;3.63;;;17.40;99.90;;;;;;5114771;28;20044;-71
2023/05/21 08:58:50;;;;;;;9.63;3.28;;;17.50;99.90;;;;;;5115935;28;20047;-71
2023/05/21 09:01:18;;;;;;;10.67;4.13;;;17.50;99.90;;;;;;5096736;28;20123;-73
2023/05/21 09:03:45;;;;;;;14.15;4.38;;;17.40;99.90;;;;;;5115167;28;20047;-71
2023/05/21 09:06:15;;;;;;;9.18;4.07;;;17.50;99.90;;;;;;5080714;28;20058;-82
2023/05/21 09:08:44;;;;;;;13.68;4.28;;;17.70;99.90;;;;;;5096713;28;20044;-71
2023/05/21 09:11:10;;;;;;;8.80;4.28;;;17.60;99.90;;;;;;5096618;28;20046;-70
2023/05/21 09:13:39;;;;;;;8.32;3.92;;;17.70;99.90;;;;;;5079888;28;20476;-72
2023/05/21 09:16:05;;;;;;;8.27;4.13;;;17.80;99.90;;;;;;5096978;28;20126;-70
2023/05/21 09:18:31;;;;;;;10.02;4.40;;;17.60;99.90;;;;;;5096062;28;20056;-69
2023/05/21 09:21:18;;;;;;;9.63;4.60;;;17.70;99.90;;;;;;5114074;28;20051;-71
2023/05/21 09:23:44;;;;;;;9.55;5.20;;;17.90;99.90;;;;;;5079552;28;20043;-72
2023/05/21 09:26:11;;;;;;;10.48;4.05;;;17.60;99.90;;;;;;5096477;28;20044;-70
2023/05/21 09:28:37;;;;;;;9.38;5.00;;;17.90;99.90;;;;;;5096386;28;20047;-72
2023/05/21 09:31:03;;;;;;;10.88;4.28;;;17.70;99.90;;;;;;5079204;28;20046;-70
2023/05/21 09:33:29;;;;;;;10.30;4.20;;;18.20;99.90;;;;;;5095968;28;20051;-70
2023/05/21 09:35:54;;;;;;;9.20;3.80;;;18.40;99.90;;;;;;5078902;28;20138;-71
2023/05/21 09:38:26;;;;;;;10.43;4.50;;;18.50;99.90;;;;;;5095713;28;20047;-71
2023/05/21 09:40:55;;;;;;;12.25;4.88;;;18.80;99.90;;;;;;5095866;28;20043;-70
2023/05/21 09:43:21;;;;;;;11.88;4.68;;;18.90;99.90;;;;;;5096066;28;20059;-71
2023/05/21 09:45:51;;;;;;;8.00;4.13;;;18.80;99.90;;;;;;5114074;28;20052;-71
2023/05/21 09:48:39;;;;;;;12.57;4.68;;;19.10;99.90;;;;;;5095836;28;20078;-75
2023/05/21 09:51:15;;;;;;;9.73;3.90;;;19.10;99.90;;;;;;5096126;28;20056;-71
2023/05/21 09:53:49;;;;;;;11.30;4.60;;;19.30;99.90;;;;;;5095787;28;20059;-70
2023/05/21 09:56:16;;;;;;;9.63;5.35;;;19.50;99.90;;;;;;5078772;28;20047;-69
2023/05/21 09:58:42;;;;;;;13.70;6.28;;;19.50;99.90;;;;;;5113985;28;20130;-70
2023/05/21 10:01:09;;;;;;;9.98;5.38;;;19.30;99.90;;;;;;5095804;28;20044;-71
2023/05/21 10:03:39;;;;;;;9.57;5.00;;;19.30;99.90;;;;;;5062365;28;20054;-73
2023/05/21 10:06:08;;;;;;;10.27;4.55;;;19.50;99.90;;;;;;5113831;28;20543;-70
2023/05/21 10:08:38;;;;;;;11.38;6.00;;;19.80;99.90;;;;;;5113751;28;20050;-71
2023/05/21 10:11:05;;;;;;;10.35;5.40;;;19.80;99.90;;;;;;5113855;28;20044;-71
2023/05/21 10:13:33;;;;;;;;;;;19.80;99.90;;;;;;5114109;28;20090;-70
2023/05/21 10:16:02;;;;;;;9.88;5.00;;;19.70;99.90;;;;;;5113728;28;19926;-71
2023/05/21 10:18:29;;;;;;;11.32;5.60;;;19.40;99.90;;;;;;5113604;28;20051;-71
2023/05/21 10:20:55;;;;;;;10.75;5.13;;;19.80;99.90;;;;;;5114160;28;20090;-71
2023/05/21 10:23:23;;;;;;;12.88;6.15;;;20.10;99.90;;;;;;5113680;28;20052;-72
2023/05/21 10:25:51;;;;;;;14.57;6.25;;;19.80;99.90;;;;;;5095568;28;20043;-70
2023/05/21 10:28:18;;;;;;;18.45;7.25;;;19.70;99.90;;;;;;5095512;28;20043;-72
2023/05/21 10:30:45;;;;;;;12.98;7.63;;;19.90;99.90;;;;;;5095415;28;20109;-70
2023/05/21 10:33:15;;;;;;;16.60;8.57;;;19.40;99.90;;;;;;5117098;28;20051;-70
2023/05/21 10:35:41;;;;;;;15.95;9.50;;;19.90;99.90;;;;;;5099889;28;20047;-70
2023/05/21 10:38:08;;;;;;;16.88;8.32;;;19.90;99.90;;;;;;5099877;28;20126;-71
2023/05/21 10:40:35;;;;;;;14.02;6.97;;;19.90;99.90;;;;;;5117950;28;20112;-71
2023/05/21 10:43:00;;;;;;;14.85;7.20;;;20.30;99.90;;;;;;5099644;28;20043;-70
2023/05/21 10:46:09;;;;;;;17.80;10.17;;;20.50;99.90;;;;;;5100569;28;20363;-70
2023/05/21 10:49:00;;;;;;;16.15;9.82;;;20.80;99.90;;;;;;5054511;28;20049;-71
2023/05/21 10:51:27;;;;;;;12.10;7.05;;;20.40;99.90;;;;;;5097639;28;20055;-73
2023/05/21 10:54:12;;;;;;;11.88;8.20;;;20.50;99.90;;;;;;5117618;28;20056;-71
2023/05/21 10:56:43;;;;;;;16.05;8.98;;;20.10;99.90;;;;;;5099230;28;20059;-71
2023/05/21 10:59:36;;;;;;;16.33;9.07;;;20.30;99.90;;;;;;5118288;28;20047;-70
2023/05/21 11:02:04;;;;;;;17.02;9.73;;;20.40;99.90;;;;;;5117760;28;20126;-71
2023/05/21 11:04:29;;;;;;;17.50;10.20;;;20.40;99.90;;;;;;5099168;28;20062;-72
2023/05/21 11:06:57;;;;;;;21.07;10.00;;;20.40;99.90;;;;;;5082388;28;20039;-71
2023/05/21 11:09:23;;;;;;;20.23;9.82;;;20.40;99.90;;;;;;5117397;28;20051;-70
2023/05/21 11:11:57;;;;;;;18.73;10.67;;;20.40;99.90;;;;;;5099082;28;20081;-71
2023/05/21 11:14:38;;;;;;;15.38;9.38;;;20.40;99.90;;;;;;5100209;28;20108;-70
2023/05/21 11:17:10;;;;;;;17.65;9.50;;;20.50;99.90;;;;;;5099503;28;20062;-70
2023/05/21 11:19:36;;;;;;;17.50;9.80;;;20.50;99.90;;;;;;5117107;28;20085;-72
2023/05/21 11:22:22;;;;;;;16.50;8.95;;;20.70;99.90;;;;;;5117061;28;20044;-71
2023/05/21 11:24:48;;;;;;;19.17;10.05;;;20.60;99.90;;;;;;5099894;28;20100;-73
2023/05/21 11:27:35;;;;;;;15.60;10.52;;;20.60;99.90;;;;;;5099062;28;20108;-73
2023/05/21 11:30:07;;;;;;;15.27;10.50;;;20.30;99.90;;;;;;5115332;28;20519;-72
2023/05/21 11:32:38;;;;;;;23.30;11.25;;;20.60;99.90;;;;;;5116881;28;20151;-71
2023/05/21 11:35:04;;;;;;;19.00;11.05;;;20.80;99.90;;;;;;5116840;28;20061;-72
2023/05/21 11:37:33;;;;;;;18.52;10.40;;;20.90;99.90;;;;;;5081871;28;20047;-69
2023/05/21 11:40:18;;;;;;;21.70;10.65;;;20.80;99.90;;;;;;5116717;28;20066;-70
2023/05/21 11:42:49;;;;;;;16.13;9.80;;;20.90;99.90;;;;;;5098890;28;20059;-71
2023/05/21 11:45:20;;;;;;;18.55;11.18;;;20.90;99.90;;;;;;5099026;28;20052;-70
2023/05/21 11:47:48;;;;;;;19.85;10.35;;;20.80;99.90;;;;;;5098622;28;20130;-68
2023/05/21 11:50:14;;;;;;;19.85;11.00;;;21.20;99.90;;;;;;5098642;28;20227;-71
2023/05/21 11:52:41;;;;;;;17.08;10.55;;;21.10;99.90;;;;;;5098759;28;20070;-70
2023/05/21 11:55:08;;;;;;;18.75;10.77;;;21.00;99.90;;;;;;5116514;28;20048;-70
2023/05/21 11:57:34;;;;;;;18.45;10.02;;;21.10;99.90;;;;;;5098013;28;20518;-72
2023/05/21 12:00:01;;;;;;;22.90;10.90;;;21.20;99.90;;;;;;5098064;28;20125;-70
2023/05/21 12:02:31;;;;;;;20.20;11.00;;;21.00;99.90;;;;;;5098164;28;20180;-70
2023/05/21 12:04:58;;;;;;;17.98;10.38;;;21.20;99.90;;;;;;5097939;28;20092;-69
2023/05/21 12:07:30;;;;;;;18.13;10.70;;;21.50;99.90;;;;;;5116229;28;20039;-71
2023/05/21 12:09:56;;;;;;;19.10;11.35;;;21.70;99.90;;;;;;5098766;28;20134;-72
2023/05/21 12:12:24;;;;;;;18.80;10.67;;;21.50;99.90;;;;;;5097962;28;20122;-70
2023/05/21 12:14:51;;;;;;;19.88;10.77;;;21.50;99.90;;;;;;5081211;28;20052;-70
2023/05/21 12:17:18;;;;;;;18.10;10.52;;;21.60;99.90;;;;;;5116667;28;20052;-71
2023/05/21 12:19:45;;;;;;;21.25;10.25;;;21.50;99.90;;;;;;5116581;28;20362;-70
2023/05/21 12:22:11;;;;;;;;;;;21.50;99.90;;;;;;5081138;28;20473;-71
2023/05/21 12:24:37;;;;;;;22.27;11.57;;;21.50;99.90;;;;;;5097930;28;19972;-72
2023/05/21 12:27:15;;;;;;;20.58;10.23;;;21.60;99.90;;;;;;5081224;28;20146;-70
2023/05/21 12:29:47;;;;;;;16.80;10.98;;;21.80;99.90;;;;;;5082202;28;20047;-71
2023/05/21 12:32:14;;;;;;;21.23;12.15;;;21.80;99.90;;;;;;5098327;28;20047;-72
2023/05/21 12:34:47;;;;;;;18.33;11.57;;;21.80;99.90;;;;;;5115619;28;20481;-74
2023/05/21 12:37:20;;;;;;;17.75;10.88;;;21.40;99.90;;;;;;5115655;28;20047;-71
2023/05/21 12:39:52;;;;;;;19.35;11.48;;;21.50;99.90;;;;;;5116073;28;20069;-71